createdAt,value
2022-08-26T00:04:42.838Z,5.20
2022-08-26T00:09:47.298Z,5.60
2022-08-26T00:14:50.530Z,6.40
2022-08-26T00:19:53.603Z,5.00
2022-08-26T00:24:56.606Z,5.30
2022-08-26T00:30:01.800Z,6.30
2022-08-26T00:35:05.749Z,5.60
2022-08-26T00:40:16.867Z,5.80
2022-08-26T00:45:20.553Z,6.00
2022-08-26T00:50:42.257Z,5.90
2022-08-26T00:55:45.613Z,6.00
2022-08-26T01:00:48.959Z,6.10
2022-08-26T01:05:57.921Z,4.60
2022-08-26T01:11:02.624Z,4.60
2022-08-26T01:16:12.088Z,4.10
2022-08-26T01:21:44.020Z,5.20
2022-08-26T01:26:48.869Z,5.00
2022-08-26T01:31:56.015Z,4.10
2022-08-26T01:37:05.447Z,3.60
2022-08-26T01:42:13.391Z,4.00
2022-08-26T01:47:18.269Z,3.90
2022-08-26T01:52:28.106Z,3.70
2022-08-26T01:57:32.003Z,3.80
2022-08-26T02:02:35.005Z,3.90
2022-08-26T02:07:40.418Z,3.80
2022-08-26T02:12:43.482Z,4.10
2022-08-26T02:17:47.708Z,4.90
2022-08-26T02:22:50.723Z,4.60
2022-08-26T02:27:54.755Z,4.90
2022-08-26T02:33:04.042Z,4.80
2022-08-26T02:38:09.795Z,5.20
2022-08-26T02:43:13.289Z,4.60
2022-08-26T02:48:19.164Z,4.60
2022-08-26T02:53:25.333Z,4.50
2022-08-26T02:58:28.658Z,4.50
2022-08-26T03:03:32.252Z,3.80
2022-08-26T03:08:35.698Z,3.70
2022-08-26T03:13:39.727Z,3.90
2022-08-26T03:18:43.467Z,3.60
2022-08-26T03:23:55.159Z,4.10
2022-08-26T03:29:20.493Z,4.30
2022-08-26T03:34:23.597Z,4.40
2022-08-26T03:39:31.455Z,4.80
2022-08-26T03:44:35.227Z,4.00
2022-08-26T03:49:38.558Z,4.80
2022-08-26T03:54:42.279Z,4.90
2022-08-26T03:59:46.515Z,5.20
2022-08-26T04:04:51.260Z,5.30
2022-08-26T04:09:58.670Z,4.40
2022-08-26T04:15:01.682Z,6.30
2022-08-26T04:20:07.771Z,5.50
2022-08-26T04:25:13.464Z,5.80
2022-08-26T04:30:16.815Z,5.80
2022-08-26T04:35:25.857Z,5.70
2022-08-26T04:40:29.300Z,4.90
2022-08-26T04:45:32.314Z,4.00
2022-08-26T04:50:35.522Z,5.30
2022-08-26T04:55:42.741Z,5.50
2022-08-26T05:00:49.825Z,6.90
2022-08-26T05:05:52.939Z,5.50
2022-08-26T05:10:56.492Z,6.30
2022-08-26T05:16:04.518Z,6.40
2022-08-26T05:21:08.207Z,6.70
2022-08-26T05:26:14.184Z,6.90
2022-08-26T05:31:27.265Z,7.40
2022-08-26T05:36:33.912Z,8.20
2022-08-26T05:41:41.199Z,6.40
2022-08-26T05:46:44.995Z,6.60
2022-08-26T05:51:48.463Z,6.20
2022-08-26T05:56:54.134Z,6.50
2022-08-26T06:01:57.335Z,6.10
2022-08-26T06:07:01.788Z,5.90
2022-08-26T06:12:06.126Z,6.60
2022-08-26T06:17:09.545Z,6.20
2022-08-26T06:22:32.721Z,5.80
2022-08-26T06:27:37.096Z,5.70
2022-08-26T06:32:40.065Z,6.20
2022-08-26T06:37:43.490Z,6.50
2022-08-26T06:42:46.896Z,7.00
2022-08-26T06:47:50.016Z,6.80
2022-08-26T06:52:54.751Z,6.80
2022-08-26T06:58:00.116Z,6.50
2022-08-26T07:03:04.467Z,6.00
2022-08-26T07:08:07.678Z,5.90
2022-08-26T07:13:12.543Z,5.50
2022-08-26T07:18:17.328Z,5.70
2022-08-26T07:23:20.818Z,5.20
2022-08-26T07:28:27.061Z,4.70
2022-08-26T07:33:30.276Z,4.70
2022-08-26T07:38:34.480Z,4.90
2022-08-26T07:43:38.001Z,4.50
2022-08-26T07:48:41.578Z,5.20
2022-08-26T07:53:52.642Z,5.40
2022-08-26T07:58:56.059Z,4.90
2022-08-26T08:03:59.171Z,5.50
2022-08-26T08:09:06.172Z,5.20
2022-08-26T08:14:11.712Z,5.00
2022-08-26T08:19:15.679Z,5.60
2022-08-26T08:24:19.181Z,5.50
2022-08-26T08:29:22.189Z,5.20
2022-08-26T08:34:28.119Z,4.10
2022-08-26T08:39:32.121Z,4.80
2022-08-26T08:44:41.157Z,4.70
2022-08-26T08:49:44.992Z,4.80
2022-08-26T08:54:48.933Z,4.90
2022-08-26T09:00:09.538Z,5.10
2022-08-26T09:05:25.174Z,4.70
2022-08-26T09:10:45.023Z,4.70
2022-08-26T09:16:10.063Z,5.10
2022-08-26T09:21:16.304Z,4.80
2022-08-26T09:26:30.958Z,4.70
2022-08-26T09:31:42.214Z,4.40
2022-08-26T09:36:57.294Z,4.40
2022-08-26T09:42:23.379Z,4.00
2022-08-26T09:47:31.635Z,4.40
2022-08-26T09:52:34.984Z,4.00
2022-08-26T09:57:52.432Z,3.90
2022-08-26T10:02:58.151Z,4.20
2022-08-26T10:08:23.146Z,3.90
2022-08-26T10:13:26.230Z,3.90
2022-08-26T10:18:35.891Z,4.00
2022-08-26T10:23:43.969Z,4.00
2022-08-26T10:29:14.207Z,4.20
2022-08-26T10:34:18.955Z,4.10
2022-08-26T10:39:36.252Z,4.00
2022-08-26T10:44:41.589Z,4.20
2022-08-26T10:49:51.706Z,3.80
2022-08-26T10:55:03.705Z,3.20
2022-08-26T11:00:51.443Z,3.30
2022-08-26T11:06:16.378Z,3.60
2022-08-26T11:11:41.301Z,3.40
2022-08-26T11:16:51.968Z,3.50
2022-08-26T11:22:07.181Z,4.00
2022-08-26T11:27:23.600Z,3.80
2022-08-26T11:32:52.448Z,3.90
2022-08-26T11:38:17.400Z,3.60
2022-08-26T11:43:26.201Z,3.80
2022-08-26T11:48:39.543Z,3.70
2022-08-26T11:53:47.359Z,3.30
2022-08-26T11:58:55.897Z,3.80
2022-08-26T12:04:01.073Z,3.40
2022-08-26T12:09:10.931Z,3.40
2022-08-26T12:14:18.724Z,3.40
2022-08-26T12:19:33.907Z,3.50
2022-08-26T12:24:46.798Z,3.50
2022-08-26T12:30:12.445Z,3.40
2022-08-26T12:35:21.162Z,3.40
2022-08-26T12:40:31.772Z,3.20
2022-08-26T12:45:44.489Z,3.00
2022-08-26T12:50:51.607Z,2.90
2022-08-26T12:56:00.610Z,3.20
2022-08-26T13:06:16.760Z,3.30
2022-08-26T13:11:35.606Z,3.20
2022-08-26T13:16:41.848Z,3.40
2022-08-26T13:21:49.634Z,3.20
2022-08-26T13:26:52.977Z,2.90
2022-08-26T13:31:56.518Z,2.60
2022-08-26T13:37:00.970Z,3.10
2022-08-26T13:42:04.357Z,3.10
2022-08-26T13:47:07.439Z,3.50
2022-08-26T13:52:11.772Z,3.40
2022-08-26T13:57:14.778Z,4.00
2022-08-26T14:02:17.993Z,4.20
2022-08-26T14:07:21.571Z,3.60
2022-08-26T14:12:25.406Z,3.20
2022-08-26T14:17:31.483Z,3.40
2022-08-26T14:22:40.441Z,3.60
2022-08-26T14:27:46.947Z,3.20
2022-08-26T14:32:55.259Z,3.60
2022-08-26T14:37:58.565Z,3.70
2022-08-26T14:43:01.907Z,3.40
2022-08-26T14:48:05.301Z,3.10
2022-08-26T14:53:29.115Z,3.30
2022-08-26T14:58:34.885Z,3.20
2022-08-26T15:03:38.202Z,3.50
2022-08-26T15:08:41.515Z,3.60
2022-08-26T15:13:48.310Z,3.70
2022-08-26T15:18:54.430Z,3.10
2022-08-26T15:23:57.604Z,2.80
2022-08-26T15:29:04.840Z,3.30
2022-08-26T15:34:16.178Z,3.00
2022-08-26T15:39:20.710Z,2.90
2022-08-26T15:44:25.602Z,3.10
2022-08-26T15:49:28.770Z,3.30
2022-08-26T15:54:32.944Z,3.00
2022-08-26T15:59:36.057Z,3.30
2022-08-26T16:04:39.981Z,3.20
2022-08-26T16:09:42.992Z,3.20
2022-08-26T16:14:52.710Z,3.30
2022-08-26T16:19:56.456Z,3.00
2022-08-26T16:25:00.000Z,3.40
2022-08-26T16:30:09.263Z,2.90
2022-08-26T16:40:15.509Z,3.40
2022-08-26T16:45:19.468Z,3.40
2022-08-26T16:50:24.059Z,3.70
2022-08-26T16:55:27.620Z,3.30
2022-08-26T17:00:34.344Z,3.50
2022-08-26T17:05:37.463Z,3.50
2022-08-26T17:10:40.671Z,3.40
2022-08-26T17:15:54.337Z,4.30
2022-08-26T17:21:07.236Z,4.00
2022-08-26T17:26:12.461Z,3.70
2022-08-26T17:31:15.602Z,4.00
2022-08-26T17:36:18.746Z,3.80
2022-08-26T17:41:21.856Z,4.00
2022-08-26T17:46:26.337Z,3.90
2022-08-26T17:51:29.706Z,3.80
2022-08-26T17:56:32.709Z,3.60
2022-08-26T18:01:35.740Z,4.00
2022-08-26T18:06:39.645Z,3.80
2022-08-26T18:11:43.361Z,4.00
2022-08-26T18:16:46.686Z,4.60
2022-08-26T18:21:49.688Z,4.50
2022-08-26T18:26:52.593Z,4.60
2022-08-26T18:31:55.757Z,4.20
2022-08-26T18:36:58.721Z,4.40
2022-08-26T18:42:01.956Z,4.50
2022-08-26T18:47:05.027Z,4.90
2022-08-26T18:52:08.243Z,4.60
2022-08-26T18:57:12.374Z,4.70
2022-08-26T19:02:15.492Z,5.60
2022-08-26T19:07:20.567Z,8.00
2022-08-26T19:12:26.994Z,8.20
2022-08-26T19:17:30.341Z,8.50
2022-08-26T19:22:33.757Z,7.00
2022-08-26T19:27:36.761Z,6.60
2022-08-26T19:32:40.177Z,6.60
2022-08-26T19:37:46.371Z,6.70
2022-08-26T19:42:50.395Z,6.90
2022-08-26T19:47:54.127Z,7.10
2022-08-26T19:52:57.220Z,7.20
2022-08-26T19:58:00.343Z,7.70
2022-08-26T20:03:03.688Z,7.70
2022-08-26T20:08:06.620Z,9.20
2022-08-26T20:13:09.861Z,9.00
2022-08-26T20:18:31.610Z,8.20
2022-08-26T20:23:36.569Z,8.80
2022-08-26T20:28:39.594Z,9.60
2022-08-26T20:33:46.597Z,9.40
2022-08-26T20:38:50.553Z,8.20
2022-08-26T20:43:54.752Z,8.00
2022-08-26T20:48:58.299Z,9.00
2022-08-26T20:54:01.791Z,8.50
2022-08-26T20:59:07.186Z,8.80
2022-08-26T21:04:14.091Z,8.40
2022-08-26T21:09:18.165Z,8.10
2022-08-26T21:14:25.889Z,8.50
2022-08-26T21:19:29.194Z,9.30
2022-08-26T21:24:32.404Z,9.70
2022-08-26T21:29:36.522Z,9.10
2022-08-26T21:34:39.545Z,8.00
2022-08-26T21:39:42.858Z,8.90
2022-08-26T21:44:46.497Z,7.70
2022-08-26T21:49:56.041Z,8.20
2022-08-26T21:55:00.994Z,7.90
2022-08-26T22:00:08.753Z,8.80
2022-08-26T22:05:12.024Z,9.40
2022-08-26T22:10:15.134Z,9.10
2022-08-26T22:15:23.118Z,7.80
2022-08-26T22:20:26.281Z,9.40
2022-08-26T22:25:29.374Z,14.00
2022-08-26T22:30:35.557Z,9.70
2022-08-26T22:35:43.915Z,10.70
2022-08-26T22:40:56.829Z,9.60
2022-08-26T22:46:00.118Z,8.70
2022-08-26T22:51:06.435Z,8.00
2022-08-26T22:56:09.530Z,8.90
2022-08-26T23:01:13.217Z,8.20
2022-08-26T23:06:16.465Z,7.20
2022-08-26T23:11:19.576Z,8.10
2022-08-26T23:16:22.830Z,10.10
2022-08-26T23:21:26.000Z,7.80
2022-08-26T23:26:32.490Z,7.40
2022-08-26T23:31:38.519Z,7.30
2022-08-26T23:36:43.617Z,8.10
2022-08-26T23:41:49.185Z,6.90
2022-08-26T23:46:52.601Z,6.60
2022-08-26T23:52:14.147Z,7.80
2022-08-26T23:57:20.020Z,7.50
